Farlington, Kansas
Current Conditions -  °F | °C
As of 12:55 PM on Friday 31 Oct 2014 (Local Time) from KPTS Reporting Station
Clear Clear  
Wind Chill: 40°   Ceiling: Unl
Heat Index: 46°   Visibility: 10mi
Dew Point: 28°   Wind: 15mph
Humidity: 48%   Direction: 30°NNE
Pressure: 30.42"   Gusts: 23mph
Location:  37.62°N, 94.83°W
Report Text: KPTS 311755Z AUTO 03013G20KT 10SM CLR 08/M02 A3042 RMK AO2 T00801023
Loading
Personal Weather Stations






























Interactive Weather Map
Tropical Storm Tracking
New forecast layout! Learn more

10-Day Weather Forecast

Advertisements
Track Severe Weather on mobile